createdAt,value
2022-09-09T00:00:28.354Z,100294.47
2022-09-09T00:03:05.291Z,100293.47
2022-09-09T00:05:41.173Z,100289.78
2022-09-09T00:08:24.037Z,100291.91
2022-09-09T00:10:55.908Z,100298.81
2022-09-09T00:13:32.492Z,100301.63
2022-09-09T00:16:06.883Z,100304.16
2022-09-09T00:18:49.840Z,100301.97
2022-09-09T00:21:20.341Z,100299.31
2022-09-09T00:23:55.907Z,100300.00
2022-09-09T00:26:35.506Z,100313.28
2022-09-09T00:29:12.676Z,100313.06
2022-09-09T00:31:41.599Z,100310.69
2022-09-09T00:34:15.157Z,100305.78
2022-09-09T00:36:45.959Z,100307.53
2022-09-09T00:39:24.789Z,100308.47
2022-09-09T00:42:10.513Z,100309.84
2022-09-09T00:44:41.156Z,100305.69
2022-09-09T00:47:27.246Z,100304.69
2022-09-09T00:50:05.875Z,100305.53
2022-09-09T00:52:47.206Z,100303.31
2022-09-09T00:55:24.257Z,100307.66
2022-09-09T00:57:55.924Z,100304.16
2022-09-09T01:00:28.167Z,100299.28
2022-09-09T01:03:23.465Z,100301.13
2022-09-09T01:06:02.295Z,100293.44
2022-09-09T01:08:51.753Z,100294.16
2022-09-09T01:11:27.084Z,100301.56
2022-09-09T01:14:05.112Z,100304.06
2022-09-09T01:16:35.524Z,100301.88
2022-09-09T01:19:07.479Z,100304.69
2022-09-09T01:21:42.341Z,100305.06
2022-09-09T01:24:28.603Z,100309.38
2022-09-09T01:27:04.039Z,100304.69
2022-09-09T01:29:35.268Z,100304.94
2022-09-09T01:32:06.249Z,100300.56
2022-09-09T01:34:41.425Z,100298.53
2022-09-09T01:37:11.507Z,100301.47
2022-09-09T01:39:43.690Z,100301.34
2022-09-09T01:42:18.730Z,100305.66
2022-09-09T01:44:47.704Z,100303.69
2022-09-09T01:47:19.191Z,100309.00
2022-09-09T01:49:47.462Z,100312.25
2022-09-09T01:52:17.899Z,100309.75
2022-09-09T01:54:47.846Z,100311.59
2022-09-09T01:57:27.494Z,100303.31
2022-09-09T02:00:10.425Z,100307.94
2022-09-09T02:02:49.595Z,100300.09
2022-09-09T02:05:31.078Z,100303.31
2022-09-09T02:08:07.925Z,100303.47
2022-09-09T02:10:44.012Z,100305.81
2022-09-09T02:13:17.279Z,100303.47
2022-09-09T02:15:55.035Z,100300.81
2022-09-09T02:18:33.316Z,100305.97
2022-09-09T02:21:02.879Z,100306.78
2022-09-09T02:23:32.010Z,100307.50
2022-09-09T02:26:01.464Z,100302.72
2022-09-09T02:28:35.222Z,100304.00
2022-09-09T02:31:03.746Z,100305.97
2022-09-09T02:33:38.395Z,100306.66
2022-09-09T02:36:10.499Z,100304.00
2022-09-09T02:38:51.619Z,100304.13
2022-09-09T02:41:34.234Z,100312.94
2022-09-09T02:44:08.159Z,100304.00
2022-09-09T02:46:58.717Z,100310.00
2022-09-09T02:49:35.889Z,100314.03
2022-09-09T02:52:18.313Z,100303.69
2022-09-09T02:54:47.528Z,100306.34
2022-09-09T02:57:23.605Z,100302.03
2022-09-09T02:59:54.960Z,100293.38
2022-09-09T03:02:23.489Z,100294.06
2022-09-09T03:04:55.969Z,100288.91
2022-09-09T03:07:26.372Z,100287.38
2022-09-09T03:09:56.116Z,100290.34
2022-09-09T03:12:24.528Z,100285.03
2022-09-09T03:14:56.903Z,100286.53
2022-09-09T03:17:25.952Z,100287.81
2022-09-09T03:20:00.127Z,100285.03
2022-09-09T03:22:29.901Z,100286.16
2022-09-09T03:24:59.429Z,100287.97
2022-09-09T03:27:28.291Z,100296.78
2022-09-09T03:29:58.883Z,100287.97
2022-09-09T03:32:28.154Z,100294.84
2022-09-09T03:34:56.592Z,100293.91
2022-09-09T03:37:25.368Z,100295.00
2022-09-09T03:39:55.726Z,100295.16
2022-09-09T03:42:25.288Z,100290.69
2022-09-09T03:44:53.947Z,100297.28
2022-09-09T03:47:24.641Z,100294.09
2022-09-09T03:49:52.963Z,100291.13
2022-09-09T03:52:27.807Z,100284.91
2022-09-09T03:54:58.204Z,100287.72
2022-09-09T03:57:26.892Z,100290.75
2022-09-09T03:59:55.704Z,100290.38
2022-09-09T04:02:28.482Z,100293.69
2022-09-09T04:04:57.804Z,100287.84
2022-09-09T04:07:28.997Z,100295.66
2022-09-09T04:09:58.231Z,100297.91
2022-09-09T04:12:27.207Z,100297.06
2022-09-09T04:14:56.383Z,100302.09
2022-09-09T04:17:25.322Z,100306.03
2022-09-09T04:19:56.273Z,100300.88
2022-09-09T04:22:24.772Z,100299.34
2022-09-09T04:24:53.252Z,100298.34
2022-09-09T04:27:22.039Z,100302.97
2022-09-09T04:29:50.653Z,100300.16
2022-09-09T04:32:19.940Z,100310.09
2022-09-09T04:34:49.736Z,100309.94
2022-09-09T04:37:20.502Z,100300.47
2022-09-09T04:39:49.211Z,100302.16
2022-09-09T04:42:17.799Z,100306.63
2022-09-09T04:44:46.315Z,100307.63
2022-09-09T04:47:16.393Z,100300.31
2022-09-09T04:49:47.020Z,100315.56
2022-09-09T04:52:22.942Z,100306.91
2022-09-09T04:54:55.385Z,100303.56
2022-09-09T04:57:27.864Z,100311.38
2022-09-09T04:59:56.552Z,100307.19
2022-09-09T05:02:30.957Z,100309.41
2022-09-09T05:05:00.199Z,100306.22
2022-09-09T05:07:32.830Z,100312.06
2022-09-09T05:10:01.369Z,100308.06
2022-09-09T05:12:30.648Z,100320.34
2022-09-09T05:15:00.141Z,100307.91
2022-09-09T05:17:30.080Z,100317.81
2022-09-09T05:20:09.568Z,100319.63
2022-09-09T05:22:40.558Z,100320.47
2022-09-09T05:25:11.034Z,100322.16
2022-09-09T05:27:40.479Z,100316.13
2022-09-09T05:30:11.154Z,100316.13
2022-09-09T05:32:39.816Z,100320.34
2022-09-09T05:35:09.974Z,100320.47
2022-09-09T05:37:40.173Z,100322.28
2022-09-09T05:40:10.812Z,100323.97
2022-09-09T05:42:40.386Z,100316.13
2022-09-09T05:45:10.177Z,100327.75
2022-09-09T05:47:39.074Z,100335.44
2022-09-09T05:50:08.867Z,100331.94
2022-09-09T05:52:39.778Z,100339.19
2022-09-09T05:55:10.640Z,100348.38
2022-09-09T05:57:38.985Z,100352.03
2022-09-09T06:00:09.876Z,100359.00
2022-09-09T06:02:40.033Z,100356.34
2022-09-09T06:05:12.376Z,100348.09
2022-09-09T06:07:45.016Z,100356.06
2022-09-09T06:10:14.748Z,100357.06
2022-09-09T06:12:44.724Z,100355.38
2022-09-09T06:15:13.209Z,100356.06
2022-09-09T06:17:43.385Z,100362.19
2022-09-09T06:20:12.396Z,100365.84
2022-09-09T06:22:44.387Z,100369.06
2022-09-09T06:25:14.098Z,100368.22
2022-09-09T06:27:43.230Z,100379.66
2022-09-09T06:30:12.916Z,100375.88
2022-09-09T06:32:41.852Z,100382.72
2022-09-09T06:35:11.928Z,100388.03
2022-09-09T06:37:40.808Z,100384.38
2022-09-09T06:40:13.309Z,100394.56
2022-09-09T06:42:42.365Z,100393.44
2022-09-09T06:45:12.206Z,100407.13
2022-09-09T06:47:40.745Z,100414.38
2022-09-09T06:50:12.251Z,100408.09
2022-09-09T06:52:41.009Z,100414.94
2022-09-09T06:55:12.030Z,100413.81
2022-09-09T06:57:41.131Z,100412.50
2022-09-09T07:00:11.078Z,100416.31
2022-09-09T07:02:40.875Z,100418.53
2022-09-09T07:05:10.551Z,100427.72
2022-09-09T07:07:39.099Z,100434.88
2022-09-09T07:10:08.695Z,100441.72
2022-09-09T07:12:38.897Z,100438.06
2022-09-09T07:15:09.094Z,100437.63
2022-09-09T07:17:37.588Z,100443.63
2022-09-09T07:20:06.939Z,100445.59
2022-09-09T07:22:36.415Z,100448.66
2022-09-09T07:25:04.808Z,100460.78
2022-09-09T07:27:33.510Z,100460.22
2022-09-09T07:30:04.920Z,100466.22
2022-09-09T07:32:34.270Z,100476.56
2022-09-09T07:35:03.274Z,100472.31
2022-09-09T07:37:31.747Z,100473.25
2022-09-09T07:40:00.338Z,100475.88
2022-09-09T07:42:28.983Z,100489.03
2022-09-09T07:44:57.589Z,100487.22
2022-09-09T07:47:27.934Z,100484.00
2022-09-09T07:49:57.054Z,100488.22
2022-09-09T07:52:25.525Z,100490.94
2022-09-09T07:54:54.506Z,100498.34
2022-09-09T07:57:24.442Z,100495.78
2022-09-09T07:59:53.566Z,100502.00
2022-09-09T08:02:22.100Z,100518.75
2022-09-09T08:04:52.732Z,100520.28
2022-09-09T08:07:22.827Z,100521.41
2022-09-09T08:09:52.658Z,100530.38
2022-09-09T08:12:21.796Z,100534.66
2022-09-09T08:14:51.221Z,100543.22
2022-09-09T08:17:19.764Z,100547.81
2022-09-09T08:19:52.702Z,100545.97
2022-09-09T08:22:21.797Z,100544.69
2022-09-09T08:24:50.104Z,100561.41
2022-09-09T08:27:18.515Z,100560.78
2022-09-09T08:29:47.345Z,100570.88
2022-09-09T08:32:15.820Z,100572.22
2022-09-09T08:34:46.709Z,100579.22
2022-09-09T08:37:17.016Z,100580.50
2022-09-09T08:39:47.462Z,100585.06
2022-09-09T08:42:28.364Z,100582.78
2022-09-09T08:45:13.931Z,100582.94
2022-09-09T08:47:54.404Z,100589.09
2022-09-09T08:50:27.231Z,100593.81
2022-09-09T08:53:05.364Z,100590.03
2022-09-09T08:55:42.832Z,100599.91
2022-09-09T08:58:16.813Z,100602.38
2022-09-09T09:01:01.488Z,100603.38
2022-09-09T09:03:42.809Z,100622.59
2022-09-09T09:06:28.716Z,100620.53
2022-09-09T09:09:04.209Z,100625.84
2022-09-09T09:11:39.896Z,100634.50
2022-09-09T09:14:17.060Z,100640.50
2022-09-09T09:16:55.268Z,100639.38
2022-09-09T09:19:27.459Z,100639.28
2022-09-09T09:22:02.159Z,100643.59
2022-09-09T09:24:45.137Z,100655.09
2022-09-09T09:27:17.346Z,100653.06
2022-09-09T09:30:10.841Z,100660.13
2022-09-09T09:32:42.275Z,100664.09
2022-09-09T09:35:15.289Z,100664.66
2022-09-09T09:40:36.283Z,100666.75
2022-09-09T09:43:09.829Z,100668.31
2022-09-09T09:45:55.205Z,100673.28
2022-09-09T09:48:35.848Z,100685.84
2022-09-09T09:51:14.343Z,100687.34
2022-09-09T09:53:42.911Z,100692.91
2022-09-09T09:56:16.502Z,100689.38
2022-09-09T09:58:53.442Z,100692.38
2022-09-09T10:01:26.340Z,100690.00
2022-09-09T10:03:57.806Z,100692.84
2022-09-09T10:06:34.947Z,100694.81
2022-09-09T10:09:09.638Z,100695.41
2022-09-09T10:11:56.345Z,100693.81
2022-09-09T10:14:32.123Z,100693.72
2022-09-09T10:17:16.182Z,100693.97
2022-09-09T10:19:53.949Z,100690.22
2022-09-09T10:22:30.293Z,100684.63
2022-09-09T10:25:22.139Z,100685.06
2022-09-09T10:28:12.599Z,100680.69
2022-09-09T10:30:57.382Z,100683.59
2022-09-09T10:33:35.738Z,100676.56
2022-09-09T10:36:12.339Z,100671.31
2022-09-09T10:38:44.809Z,100668.16
2022-09-09T10:41:22.781Z,100663.00
2022-09-09T10:44:17.622Z,100649.13
2022-09-09T10:47:01.872Z,100649.97
2022-09-09T10:49:50.829Z,100652.41
2022-09-09T10:52:31.311Z,100651.69
2022-09-09T10:55:10.073Z,100660.69
2022-09-09T10:57:44.330Z,100662.19
2022-09-09T11:00:21.902Z,100666.34
2022-09-09T11:02:55.893Z,100667.47
2022-09-09T11:05:35.506Z,100669.66
2022-09-09T11:08:09.872Z,100665.00
2022-09-09T11:10:46.669Z,100674.88
2022-09-09T11:13:23.674Z,100681.59
2022-09-09T11:16:01.346Z,100679.63
2022-09-09T11:18:34.642Z,100670.88
2022-09-09T11:21:06.979Z,100673.91
2022-09-09T11:23:43.218Z,100677.78
2022-09-09T11:26:19.491Z,100673.09
2022-09-09T11:29:05.391Z,100683.13
2022-09-09T11:31:54.542Z,100677.53
2022-09-09T11:37:43.783Z,100687.97
2022-09-09T11:40:22.144Z,100682.03
2022-09-09T11:42:52.164Z,100689.19
2022-09-09T11:45:30.453Z,100682.38
2022-09-09T11:48:02.689Z,100683.53
2022-09-09T11:50:38.002Z,100689.22
2022-09-09T11:53:24.136Z,100682.22
2022-09-09T11:56:16.096Z,100687.22
2022-09-09T11:58:56.701Z,100691.72
2022-09-09T12:01:40.961Z,100691.56
2022-09-09T12:04:31.560Z,100696.22
2022-09-09T12:07:03.695Z,100688.34
2022-09-09T12:09:54.048Z,100657.19
2022-09-09T12:12:33.269Z,100627.59
2022-09-09T12:15:22.140Z,100587.41
2022-09-09T12:17:53.234Z,100602.53
2022-09-09T12:20:26.135Z,100586.09
2022-09-09T12:23:11.734Z,100581.84
2022-09-09T12:25:55.511Z,100615.91
2022-09-09T12:28:30.453Z,100621.53
2022-09-09T12:31:09.355Z,100656.75
2022-09-09T12:33:40.630Z,100654.91
2022-09-09T12:36:16.079Z,100668.81
2022-09-09T12:38:46.175Z,100654.06
2022-09-09T12:41:23.825Z,100650.06
2022-09-09T12:43:52.531Z,100641.63
2022-09-09T12:46:32.439Z,100641.66
2022-09-09T12:49:01.157Z,100643.50
2022-09-09T12:51:34.388Z,100645.94
2022-09-09T12:54:04.837Z,100648.63
2022-09-09T12:56:35.743Z,100657.25
2022-09-09T12:59:05.195Z,100665.19
2022-09-09T13:01:36.499Z,100682.78
2022-09-09T13:04:05.793Z,100675.94
2022-09-09T13:06:36.023Z,100678.28
2022-09-09T13:09:05.546Z,100675.06
2022-09-09T13:11:40.540Z,100671.44
2022-09-09T13:14:09.559Z,100673.91
2022-09-09T13:16:42.910Z,100669.78
2022-09-09T13:19:17.499Z,100670.44
2022-09-09T13:21:49.366Z,100676.44
2022-09-09T13:24:31.206Z,100666.41
2022-09-09T13:27:03.077Z,100680.31
2022-09-09T13:29:32.911Z,100702.84
2022-09-09T13:32:09.388Z,100709.25
2022-09-09T13:34:38.554Z,100725.00
2022-09-09T13:37:21.815Z,100743.22
2022-09-09T13:39:55.589Z,100744.88
2022-09-09T13:42:30.380Z,100748.03
2022-09-09T13:45:01.499Z,100753.94
2022-09-09T13:47:35.713Z,100753.09
2022-09-09T13:50:21.912Z,100750.41
2022-09-09T13:52:52.774Z,100751.72
2022-09-09T13:55:23.477Z,100758.91
2022-09-09T13:57:57.891Z,100760.09
2022-09-09T14:00:28.125Z,100760.94
2022-09-09T14:02:57.389Z,100762.09
2022-09-09T14:05:29.046Z,100764.09
2022-09-09T14:08:02.190Z,100772.91
2022-09-09T14:10:31.138Z,100784.59
2022-09-09T14:12:59.955Z,100805.59
2022-09-09T14:15:29.110Z,100803.09
2022-09-09T14:18:00.306Z,100807.44
2022-09-09T14:20:30.374Z,100801.44
2022-09-09T14:23:03.518Z,100804.31
2022-09-09T14:25:32.738Z,100804.53
2022-09-09T14:28:03.791Z,100807.56
2022-09-09T14:30:32.895Z,100812.06
2022-09-09T14:33:01.835Z,100815.13
2022-09-09T14:35:34.954Z,100787.53
2022-09-09T14:38:06.968Z,100774.78
2022-09-09T14:40:37.556Z,100753.72
2022-09-09T14:43:07.305Z,100754.03
2022-09-09T14:45:38.618Z,100764.88
2022-09-09T14:48:07.890Z,100788.03
2022-09-09T14:50:41.553Z,100789.50
2022-09-09T14:53:15.685Z,100795.72
2022-09-09T14:55:44.990Z,100789.50
2022-09-09T14:58:14.811Z,100784.34
2022-09-09T15:00:44.584Z,100791.06
2022-09-09T15:03:13.376Z,100781.53
2022-09-09T15:05:44.487Z,100786.81
2022-09-09T15:08:17.826Z,100778.75
2022-09-09T15:10:46.522Z,100778.72
2022-09-09T15:13:18.739Z,100772.34
2022-09-09T15:15:47.564Z,100728.41
2022-09-09T15:18:17.345Z,100735.28
2022-09-09T15:20:48.792Z,100748.31
2022-09-09T15:23:19.674Z,100743.59
2022-09-09T15:25:55.717Z,100713.78
2022-09-09T15:28:26.442Z,100731.84
2022-09-09T15:30:56.196Z,100752.59
2022-09-09T15:33:31.663Z,100780.41
2022-09-09T15:36:01.035Z,100783.38
2022-09-09T15:38:34.076Z,100793.03
2022-09-09T15:41:03.183Z,100791.00
2022-09-09T15:43:32.909Z,100791.16
2022-09-09T15:46:25.656Z,100806.53
2022-09-09T15:48:55.924Z,100801.19
2022-09-09T15:51:43.211Z,100806.50
2022-09-09T15:54:21.745Z,100808.34
2022-09-09T15:56:53.942Z,100803.19
2022-09-09T15:59:24.027Z,100807.88
2022-09-09T16:01:53.489Z,100776.44
2022-09-09T16:04:24.720Z,100726.97
2022-09-09T16:06:54.374Z,100728.56
2022-09-09T16:09:24.456Z,100747.59
2022-09-09T16:11:53.366Z,100770.03
2022-09-09T16:14:29.713Z,100776.63
2022-09-09T16:17:02.848Z,100784.38
2022-09-09T16:19:37.106Z,100791.19
2022-09-09T16:22:08.288Z,100792.69
2022-09-09T16:24:38.569Z,100803.69
2022-09-09T16:27:09.820Z,100816.22
2022-09-09T16:29:41.396Z,100823.75
2022-09-09T16:32:11.550Z,100822.72
2022-09-09T16:34:40.504Z,100819.53
2022-09-09T16:37:08.872Z,100830.06
2022-09-09T16:39:38.959Z,100838.09
2022-09-09T16:42:07.823Z,100845.91
2022-09-09T16:44:37.074Z,100847.88
2022-09-09T16:48:13.948Z,100858.88
2022-09-09T16:50:43.433Z,100857.16
2022-09-09T16:53:12.700Z,100860.28
2022-09-09T16:55:44.434Z,100860.47
2022-09-09T16:58:14.123Z,100865.81
2022-09-09T17:00:42.715Z,100869.31
2022-09-09T17:03:16.912Z,100874.81
2022-09-09T17:05:46.020Z,100879.00
2022-09-09T17:08:18.856Z,100878.88
2022-09-09T17:10:49.945Z,100878.16
2022-09-09T17:13:21.077Z,100887.50
2022-09-09T17:15:50.706Z,100879.66
2022-09-09T17:18:19.665Z,100887.97
2022-09-09T17:20:49.658Z,100886.47
2022-09-09T17:23:25.725Z,100886.25
2022-09-09T17:26:03.674Z,100887.59
2022-09-09T17:28:32.732Z,100892.81
2022-09-09T17:31:09.433Z,100897.25
2022-09-09T17:33:40.745Z,100894.25
2022-09-09T17:36:12.534Z,100871.97
2022-09-09T17:38:43.709Z,100873.13
2022-09-09T17:41:16.678Z,100892.38
2022-09-09T17:43:45.166Z,100907.81
2022-09-09T17:46:38.187Z,100908.84
2022-09-09T17:49:10.402Z,100915.13
2022-09-09T17:51:39.266Z,100920.34
2022-09-09T17:54:10.444Z,100929.81
2022-09-09T17:56:41.949Z,100930.94
2022-09-09T17:59:13.977Z,100928.53
2022-09-09T18:01:44.998Z,100934.44
2022-09-09T18:04:17.945Z,100945.19
2022-09-09T18:06:49.062Z,100952.66
2022-09-09T18:09:19.786Z,100954.69
2022-09-09T18:11:52.493Z,100960.84
2022-09-09T18:14:24.471Z,100974.22
2022-09-09T18:16:53.597Z,100967.06
2022-09-09T18:19:25.727Z,100981.53
2022-09-09T18:21:57.513Z,100979.56
2022-09-09T18:24:29.069Z,100983.69
2022-09-09T18:26:58.945Z,100982.28
2022-09-09T18:29:28.766Z,100979.09
2022-09-09T18:32:00.463Z,100979.78
2022-09-09T18:34:30.412Z,100980.63
2022-09-09T18:36:58.942Z,100981.47
2022-09-09T18:39:30.166Z,100969.19
2022-09-09T18:42:02.883Z,100965.41
2022-09-09T18:44:34.726Z,100973.03
2022-09-09T18:47:04.274Z,100974.03
2022-09-09T18:49:33.588Z,100978.25
2022-09-09T18:52:03.747Z,100989.75
2022-09-09T18:54:34.274Z,100985.56
2022-09-09T18:57:04.725Z,100989.06
2022-09-09T18:59:37.492Z,100986.69
2022-09-09T19:02:06.323Z,100985.00
2022-09-09T19:04:35.183Z,100991.19
2022-09-09T19:07:04.185Z,101000.84
2022-09-09T19:09:34.452Z,101010.00
2022-09-09T19:12:06.579Z,101016.00
2022-09-09T19:14:35.560Z,101022.31
2022-09-09T19:17:04.398Z,101030.16
2022-09-09T19:19:34.784Z,101040.00
2022-09-09T19:22:07.027Z,101046.59
2022-09-09T19:24:35.488Z,101049.41
2022-09-09T19:27:09.092Z,101050.41
2022-09-09T19:29:43.893Z,101055.75
2022-09-09T19:35:02.229Z,101065.00
2022-09-09T19:37:32.570Z,101061.91
2022-09-09T19:40:01.054Z,101063.56
2022-09-09T19:42:34.619Z,101066.69
2022-09-09T19:45:04.597Z,101072.88
2022-09-09T19:47:33.440Z,101077.78
2022-09-09T19:50:05.885Z,101082.97
2022-09-09T19:52:34.537Z,101085.09
2022-09-09T19:55:08.527Z,101092.66
2022-09-09T19:57:41.897Z,101101.06
2022-09-09T20:00:14.380Z,101109.06
2022-09-09T20:02:53.874Z,101115.09
2022-09-09T20:05:35.070Z,101123.09
2022-09-09T20:08:08.978Z,101129.00
2022-09-09T20:10:37.929Z,101134.31
2022-09-09T20:13:08.431Z,101131.66
2022-09-09T20:15:36.928Z,101140.19
2022-09-09T20:18:06.900Z,101140.06
2022-09-09T20:20:35.368Z,101143.41
2022-09-09T20:23:04.029Z,101151.41
2022-09-09T20:25:32.520Z,101148.06
2022-09-09T20:28:01.205Z,101148.91
2022-09-09T20:30:31.286Z,101151.56
2022-09-09T20:33:00.441Z,101159.41
2022-09-09T20:35:31.534Z,101157.03
2022-09-09T20:38:01.176Z,101156.06
2022-09-09T20:40:33.325Z,101160.81
2022-09-09T20:43:01.980Z,101163.47
2022-09-09T20:45:39.196Z,101180.72
2022-09-09T20:48:08.336Z,101178.91
2022-09-09T20:50:39.803Z,101183.22
2022-09-09T20:53:10.346Z,101189.13
2022-09-09T20:55:39.321Z,101185.91
2022-09-09T20:58:08.370Z,101183.38
2022-09-09T21:00:38.498Z,101193.47
2022-09-09T21:03:12.017Z,101191.22
2022-09-09T21:05:40.894Z,101199.09
2022-09-09T21:08:09.564Z,101208.19
2022-09-09T21:10:42.174Z,101206.63
2022-09-09T21:13:13.328Z,101212.34
2022-09-09T21:15:45.833Z,101217.22
2022-09-09T21:18:14.450Z,101219.91
2022-09-09T21:20:44.052Z,101214.00
2022-09-09T21:23:13.532Z,101221.28
2022-09-09T21:25:43.314Z,101226.03
2022-09-09T21:28:13.287Z,101225.34
2022-09-09T21:30:44.349Z,101229.41
2022-09-09T21:33:15.219Z,101218.28
2022-09-09T21:35:45.242Z,101218.69
2022-09-09T21:38:17.777Z,101218.00
2022-09-09T21:40:46.874Z,101228.91
2022-09-09T21:43:16.662Z,101229.06
2022-09-09T21:45:46.890Z,101222.16
2022-09-09T21:48:18.253Z,101227.34
2022-09-09T21:50:49.715Z,101222.69
2022-09-09T21:53:20.608Z,101227.41
2022-09-09T21:55:50.240Z,101235.50
2022-09-09T21:58:19.627Z,101237.56
2022-09-09T22:00:50.700Z,101238.22
2022-09-09T22:03:23.569Z,101245.31
2022-09-09T22:05:54.278Z,101250.88
2022-09-09T22:08:23.094Z,101249.09
2022-09-09T22:10:51.589Z,101246.44
2022-09-09T22:13:21.144Z,101247.00
2022-09-09T22:15:51.510Z,101256.53
2022-09-09T22:18:20.140Z,101251.06
2022-09-09T22:20:49.034Z,101256.28
2022-09-09T22:23:17.570Z,101259.91
2022-09-09T22:25:47.493Z,101262.84
2022-09-09T22:28:17.015Z,101260.28
2022-09-09T22:30:45.842Z,101263.47
2022-09-09T22:33:15.679Z,101265.09
2022-09-09T22:35:45.235Z,101262.56
2022-09-09T22:38:14.258Z,101263.81
2022-09-09T22:40:43.521Z,101269.97
2022-09-09T22:43:16.771Z,101267.44
2022-09-09T22:45:46.378Z,101273.81
2022-09-09T22:48:17.070Z,101271.53
2022-09-09T22:50:57.250Z,101280.88
2022-09-09T22:53:57.962Z,101283.53
2022-09-09T22:56:52.271Z,101284.59
2022-09-09T22:59:50.976Z,101289.09
2022-09-09T23:02:38.676Z,101292.47
2022-09-09T23:05:13.009Z,101284.59
2022-09-09T23:07:47.452Z,101286.56
2022-09-09T23:10:23.888Z,101297.44
2022-09-09T23:13:05.921Z,101289.84
2022-09-09T23:15:44.327Z,101295.31
2022-09-09T23:18:13.607Z,101299.69
2022-09-09T23:20:45.630Z,101299.47
2022-09-09T23:23:14.360Z,101306.97
2022-09-09T23:25:44.020Z,101306.50
2022-09-09T23:28:12.525Z,101317.63
2022-09-09T23:30:43.640Z,101315.69
2022-09-09T23:33:11.952Z,101311.94
2022-09-09T23:35:41.268Z,101315.44
2022-09-09T23:38:12.172Z,101312.94
2022-09-09T23:40:40.823Z,101319.19
2022-09-09T23:43:09.425Z,101309.78
2022-09-09T23:45:38.262Z,101310.03
2022-09-09T23:48:06.992Z,101322.34
2022-09-09T23:50:37.381Z,101318.38
2022-09-09T23:53:08.738Z,101320.19
2022-09-09T23:55:40.398Z,101317.63
2022-09-09T23:58:09.957Z,101323.91
